sensor_id;sensor_type;location;lat;lon;timestamp;P1;durP1;ratioP1;P2;durP2;ratioP2
19235;SDS011;9752;54.270;12.470;2022-08-21T00:04:05;6.07;;;3.63;;
19235;SDS011;9752;54.270;12.470;2022-08-21T00:09:08;5.90;;;2.80;;
19235;SDS011;9752;54.270;12.470;2022-08-21T00:14:10;5.77;;;2.70;;
19235;SDS011;9752;54.270;12.470;2022-08-21T00:19:14;4.33;;;2.60;;
19235;SDS011;9752;54.270;12.470;2022-08-21T00:24:15;7.93;;;3.03;;
19235;SDS011;9752;54.270;12.470;2022-08-21T00:29:17;4.07;;;3.23;;
19235;SDS011;9752;54.270;12.470;2022-08-21T00:34:21;5.10;;;3.10;;
19235;SDS011;9752;54.270;12.470;2022-08-21T00:39:23;4.10;;;2.90;;
19235;SDS011;9752;54.270;12.470;2022-08-21T00:44:24;6.03;;;2.50;;
19235;SDS011;9752;54.270;12.470;2022-08-21T00:49:27;7.37;;;2.80;;
19235;SDS011;9752;54.270;12.470;2022-08-21T00:54:29;3.40;;;2.93;;
19235;SDS011;9752;54.270;12.470;2022-08-21T00:59:35;4.47;;;2.80;;
19235;SDS011;9752;54.270;12.470;2022-08-21T01:04:40;8.57;;;3.57;;
19235;SDS011;9752;54.270;12.470;2022-08-21T01:09:42;5.70;;;2.70;;
19235;SDS011;9752;54.270;12.470;2022-08-21T01:14:44;5.90;;;2.93;;
19235;SDS011;9752;54.270;12.470;2022-08-21T01:19:47;6.73;;;2.83;;
19235;SDS011;9752;54.270;12.470;2022-08-21T01:24:50;5.77;;;2.70;;
19235;SDS011;9752;54.270;12.470;2022-08-21T01:29:53;8.90;;;2.70;;
19235;SDS011;9752;54.270;12.470;2022-08-21T01:34:57;5.50;;;3.10;;
19235;SDS011;9752;54.270;12.470;2022-08-21T01:40:01;4.77;;;2.77;;
19235;SDS011;9752;54.270;12.470;2022-08-21T01:45:03;5.60;;;3.07;;
19235;SDS011;9752;54.270;12.470;2022-08-21T01:50:07;7.17;;;2.87;;
19235;SDS011;9752;54.270;12.470;2022-08-21T01:55:12;8.87;;;3.00;;
19235;SDS011;9752;54.270;12.470;2022-08-21T02:00:16;5.80;;;3.03;;
19235;SDS011;9752;54.270;12.470;2022-08-21T02:05:20;8.17;;;3.93;;
19235;SDS011;9752;54.270;12.470;2022-08-21T02:10:24;6.57;;;3.43;;
19235;SDS011;9752;54.270;12.470;2022-08-21T02:15:28;5.87;;;2.63;;
19235;SDS011;9752;54.270;12.470;2022-08-21T02:20:31;4.03;;;2.57;;
19235;SDS011;9752;54.270;12.470;2022-08-21T02:25:36;9.00;;;3.20;;
19235;SDS011;9752;54.270;12.470;2022-08-21T02:30:40;7.07;;;2.97;;
19235;SDS011;9752;54.270;12.470;2022-08-21T02:35:44;11.17;;;3.07;;
19235;SDS011;9752;54.270;12.470;2022-08-21T02:40:49;5.43;;;2.80;;
19235;SDS011;9752;54.270;12.470;2022-08-21T02:45:52;3.17;;;2.37;;
19235;SDS011;9752;54.270;12.470;2022-08-21T02:50:56;7.40;;;3.00;;
19235;SDS011;9752;54.270;12.470;2022-08-21T02:56:02;7.03;;;2.87;;
19235;SDS011;9752;54.270;12.470;2022-08-21T03:01:06;9.70;;;3.47;;
19235;SDS011;9752;54.270;12.470;2022-08-21T03:06:10;5.60;;;3.43;;
19235;SDS011;9752;54.270;12.470;2022-08-21T03:11:15;5.77;;;3.10;;
19235;SDS011;9752;54.270;12.470;2022-08-21T03:16:19;6.67;;;3.43;;
19235;SDS011;9752;54.270;12.470;2022-08-21T03:21:21;5.43;;;3.00;;
19235;SDS011;9752;54.270;12.470;2022-08-21T03:26:24;8.07;;;3.60;;
19235;SDS011;9752;54.270;12.470;2022-08-21T03:31:25;6.07;;;3.03;;
19235;SDS011;9752;54.270;12.470;2022-08-21T03:36:30;6.07;;;3.40;;
19235;SDS011;9752;54.270;12.470;2022-08-21T03:41:34;11.87;;;4.23;;
19235;SDS011;9752;54.270;12.470;2022-08-21T03:46:35;9.13;;;3.90;;
19235;SDS011;9752;54.270;12.470;2022-08-21T03:51:37;10.33;;;4.23;;
19235;SDS011;9752;54.270;12.470;2022-08-21T03:56:40;6.37;;;3.60;;
19235;SDS011;9752;54.270;12.470;2022-08-21T04:01:50;7.90;;;3.67;;
19235;SDS011;9752;54.270;12.470;2022-08-21T04:06:53;8.63;;;3.27;;
19235;SDS011;9752;54.270;12.470;2022-08-21T04:11:56;9.83;;;4.00;;
19235;SDS011;9752;54.270;12.470;2022-08-21T04:16:58;8.50;;;3.97;;
19235;SDS011;9752;54.270;12.470;2022-08-21T04:21:59;11.30;;;4.40;;
19235;SDS011;9752;54.270;12.470;2022-08-21T04:27:02;9.37;;;3.83;;
19235;SDS011;9752;54.270;12.470;2022-08-21T04:32:05;9.60;;;4.07;;
19235;SDS011;9752;54.270;12.470;2022-08-21T04:37:07;10.80;;;4.03;;
19235;SDS011;9752;54.270;12.470;2022-08-21T04:42:10;9.47;;;3.87;;
19235;SDS011;9752;54.270;12.470;2022-08-21T04:47:11;9.63;;;4.00;;
19235;SDS011;9752;54.270;12.470;2022-08-21T04:52:14;8.17;;;3.77;;
19235;SDS011;9752;54.270;12.470;2022-08-21T04:57:20;10.40;;;3.93;;
19235;SDS011;9752;54.270;12.470;2022-08-21T05:02:21;7.93;;;3.27;;
19235;SDS011;9752;54.270;12.470;2022-08-21T05:07:23;8.60;;;3.40;;
19235;SDS011;9752;54.270;12.470;2022-08-21T05:12:31;7.33;;;3.33;;
19235;SDS011;9752;54.270;12.470;2022-08-21T05:17:33;7.67;;;2.90;;
19235;SDS011;9752;54.270;12.470;2022-08-21T05:22:35;10.73;;;3.93;;
19235;SDS011;9752;54.270;12.470;2022-08-21T05:27:39;4.77;;;2.70;;
19235;SDS011;9752;54.270;12.470;2022-08-21T05:32:40;9.87;;;3.60;;
19235;SDS011;9752;54.270;12.470;2022-08-21T05:37:42;5.50;;;3.47;;
19235;SDS011;9752;54.270;12.470;2022-08-21T05:42:45;12.17;;;3.87;;
19235;SDS011;9752;54.270;12.470;2022-08-21T05:47:47;7.93;;;2.73;;
19235;SDS011;9752;54.270;12.470;2022-08-21T05:52:49;7.70;;;3.50;;
19235;SDS011;9752;54.270;12.470;2022-08-21T05:57:52;7.17;;;3.40;;
19235;SDS011;9752;54.270;12.470;2022-08-21T06:02:54;4.93;;;3.50;;
19235;SDS011;9752;54.270;12.470;2022-08-21T06:07:56;3.73;;;3.00;;
19235;SDS011;9752;54.270;12.470;2022-08-21T06:12:59;7.40;;;3.30;;
19235;SDS011;9752;54.270;12.470;2022-08-21T06:18:01;8.73;;;3.67;;
19235;SDS011;9752;54.270;12.470;2022-08-21T06:23:03;8.50;;;3.90;;
19235;SDS011;9752;54.270;12.470;2022-08-21T06:28:07;9.30;;;3.63;;
19235;SDS011;9752;54.270;12.470;2022-08-21T06:33:10;12.80;;;3.77;;
19235;SDS011;9752;54.270;12.470;2022-08-21T06:38:11;6.40;;;3.83;;
19235;SDS011;9752;54.270;12.470;2022-08-21T06:43:15;10.97;;;4.03;;
19235;SDS011;9752;54.270;12.470;2022-08-21T06:48:18;5.60;;;3.60;;
19235;SDS011;9752;54.270;12.470;2022-08-21T06:53:20;7.80;;;3.73;;
19235;SDS011;9752;54.270;12.470;2022-08-21T06:58:23;8.87;;;4.13;;
19235;SDS011;9752;54.270;12.470;2022-08-21T07:03:26;7.63;;;3.60;;
19235;SDS011;9752;54.270;12.470;2022-08-21T07:08:29;10.00;;;3.63;;
19235;SDS011;9752;54.270;12.470;2022-08-21T07:13:33;7.17;;;3.50;;
19235;SDS011;9752;54.270;12.470;2022-08-21T07:18:34;10.87;;;3.77;;
19235;SDS011;9752;54.270;12.470;2022-08-21T07:23:37;6.57;;;3.83;;
19235;SDS011;9752;54.270;12.470;2022-08-21T07:28:44;7.87;;;3.60;;
19235;SDS011;9752;54.270;12.470;2022-08-21T07:33:46;6.63;;;3.80;;
19235;SDS011;9752;54.270;12.470;2022-08-21T07:38:48;8.87;;;4.13;;
19235;SDS011;9752;54.270;12.470;2022-08-21T07:43:51;10.77;;;4.03;;
19235;SDS011;9752;54.270;12.470;2022-08-21T07:48:52;12.27;;;4.23;;
19235;SDS011;9752;54.270;12.470;2022-08-21T07:53:55;8.47;;;3.93;;
19235;SDS011;9752;54.270;12.470;2022-08-21T07:59:00;5.33;;;3.77;;
19235;SDS011;9752;54.270;12.470;2022-08-21T08:04:03;8.03;;;3.97;;
19235;SDS011;9752;54.270;12.470;2022-08-21T08:09:05;8.20;;;4.07;;
19235;SDS011;9752;54.270;12.470;2022-08-21T08:14:08;10.77;;;4.47;;
19235;SDS011;9752;54.270;12.470;2022-08-21T08:19:09;5.93;;;4.43;;
19235;SDS011;9752;54.270;12.470;2022-08-21T08:24:11;7.30;;;3.87;;
19235;SDS011;9752;54.270;12.470;2022-08-21T08:29:14;7.40;;;4.33;;
19235;SDS011;9752;54.270;12.470;2022-08-21T08:34:16;11.53;;;4.83;;
19235;SDS011;9752;54.270;12.470;2022-08-21T08:39:19;6.87;;;3.63;;
19235;SDS011;9752;54.270;12.470;2022-08-21T08:44:22;5.83;;;4.73;;
19235;SDS011;9752;54.270;12.470;2022-08-21T08:49:27;10.00;;;3.97;;
19235;SDS011;9752;54.270;12.470;2022-08-21T08:54:33;7.53;;;5.20;;
19235;SDS011;9752;54.270;12.470;2022-08-21T08:59:42;7.70;;;4.70;;
19235;SDS011;9752;54.270;12.470;2022-08-21T09:04:47;7.03;;;5.20;;
19235;SDS011;9752;54.270;12.470;2022-08-21T09:09:54;10.33;;;5.70;;
19235;SDS011;9752;54.270;12.470;2022-08-21T09:15:09;7.13;;;5.93;;
19235;SDS011;9752;54.270;12.470;2022-08-21T09:20:18;6.60;;;6.00;;
19235;SDS011;9752;54.270;12.470;2022-08-21T09:25:25;8.73;;;6.27;;
19235;SDS011;9752;54.270;12.470;2022-08-21T09:30:31;8.83;;;7.23;;
19235;SDS011;9752;54.270;12.470;2022-08-21T09:35:33;11.67;;;8.13;;
19235;SDS011;9752;54.270;12.470;2022-08-21T09:40:38;7.80;;;6.60;;
19235;SDS011;9752;54.270;12.470;2022-08-21T09:45:43;8.63;;;5.77;;
19235;SDS011;9752;54.270;12.470;2022-08-21T09:50:46;8.87;;;7.53;;
19235;SDS011;9752;54.270;12.470;2022-08-21T09:55:51;7.67;;;6.90;;
19235;SDS011;9752;54.270;12.470;2022-08-21T10:01:27;8.30;;;7.57;;
19235;SDS011;9752;54.270;12.470;2022-08-21T10:06:29;8.23;;;7.20;;
19235;SDS011;9752;54.270;12.470;2022-08-21T10:11:31;10.53;;;7.17;;
19235;SDS011;9752;54.270;12.470;2022-08-21T10:16:37;8.03;;;7.33;;
19235;SDS011;9752;54.270;12.470;2022-08-21T10:27:11;7.33;;;6.17;;
19235;SDS011;9752;54.270;12.470;2022-08-21T10:37:48;12.63;;;7.30;;
19235;SDS011;9752;54.270;12.470;2022-08-21T10:43:02;11.33;;;7.00;;
19235;SDS011;9752;54.270;12.470;2022-08-21T10:48:24;10.10;;;7.37;;
19235;SDS011;9752;54.270;12.470;2022-08-21T10:53:34;9.10;;;7.07;;
19235;SDS011;9752;54.270;12.470;2022-08-21T10:58:59;12.93;;;8.43;;
19235;SDS011;9752;54.270;12.470;2022-08-21T11:04:12;9.13;;;6.13;;
19235;SDS011;9752;54.270;12.470;2022-08-21T11:09:18;9.60;;;6.83;;
19235;SDS011;9752;54.270;12.470;2022-08-21T11:14:24;8.63;;;7.23;;
19235;SDS011;9752;54.270;12.470;2022-08-21T11:19:35;9.93;;;8.83;;
19235;SDS011;9752;54.270;12.470;2022-08-21T11:24:44;9.40;;;8.37;;
19235;SDS011;9752;54.270;12.470;2022-08-21T11:29:54;10.27;;;8.57;;
19235;SDS011;9752;54.270;12.470;2022-08-21T11:35:01;10.50;;;7.60;;
19235;SDS011;9752;54.270;12.470;2022-08-21T11:40:10;13.23;;;7.90;;
19235;SDS011;9752;54.270;12.470;2022-08-21T11:45:21;10.07;;;8.23;;
19235;SDS011;9752;54.270;12.470;2022-08-21T11:50:29;10.27;;;7.87;;
19235;SDS011;9752;54.270;12.470;2022-08-21T11:55:34;8.40;;;7.67;;
19235;SDS011;9752;54.270;12.470;2022-08-21T12:00:42;12.60;;;8.63;;
19235;SDS011;9752;54.270;12.470;2022-08-21T12:05:53;13.33;;;10.07;;
19235;SDS011;9752;54.270;12.470;2022-08-21T12:11:02;10.60;;;9.80;;
19235;SDS011;9752;54.270;12.470;2022-08-21T12:16:11;10.00;;;9.20;;
19235;SDS011;9752;54.270;12.470;2022-08-21T12:21:21;10.30;;;9.50;;
19235;SDS011;9752;54.270;12.470;2022-08-21T12:26:26;10.30;;;9.60;;
19235;SDS011;9752;54.270;12.470;2022-08-21T12:31:31;12.00;;;9.90;;
19235;SDS011;9752;54.270;12.470;2022-08-21T12:36:40;11.83;;;10.73;;
19235;SDS011;9752;54.270;12.470;2022-08-21T12:41:47;11.73;;;10.63;;
19235;SDS011;9752;54.270;12.470;2022-08-21T12:46:54;11.00;;;10.10;;
19235;SDS011;9752;54.270;12.470;2022-08-21T12:52:02;12.23;;;11.23;;
19235;SDS011;9752;54.270;12.470;2022-08-21T12:57:18;11.40;;;10.47;;
19235;SDS011;9752;54.270;12.470;2022-08-21T13:02:23;10.90;;;10.10;;
19235;SDS011;9752;54.270;12.470;2022-08-21T13:07:29;12.60;;;11.73;;
19235;SDS011;9752;54.270;12.470;2022-08-21T13:12:33;12.47;;;11.57;;
19235;SDS011;9752;54.270;12.470;2022-08-21T13:17:46;12.10;;;10.90;;
19235;SDS011;9752;54.270;12.470;2022-08-21T13:22:51;12.73;;;11.73;;
19235;SDS011;9752;54.270;12.470;2022-08-21T13:27:57;12.70;;;11.80;;
19235;SDS011;9752;54.270;12.470;2022-08-21T13:33:03;12.17;;;11.40;;
19235;SDS011;9752;54.270;12.470;2022-08-21T13:38:09;12.87;;;11.73;;
19235;SDS011;9752;54.270;12.470;2022-08-21T13:43:11;14.43;;;13.10;;
19235;SDS011;9752;54.270;12.470;2022-08-21T13:48:15;13.57;;;12.47;;
19235;SDS011;9752;54.270;12.470;2022-08-21T13:53:22;13.57;;;12.57;;
19235;SDS011;9752;54.270;12.470;2022-08-21T13:58:30;13.80;;;12.77;;
19235;SDS011;9752;54.270;12.470;2022-08-21T14:03:34;13.50;;;12.10;;
19235;SDS011;9752;54.270;12.470;2022-08-21T14:08:40;13.40;;;12.50;;
19235;SDS011;9752;54.270;12.470;2022-08-21T14:13:49;13.90;;;12.70;;
19235;SDS011;9752;54.270;12.470;2022-08-21T14:19:07;13.17;;;12.27;;
19235;SDS011;9752;54.270;12.470;2022-08-21T14:24:13;13.67;;;12.50;;
19235;SDS011;9752;54.270;12.470;2022-08-21T14:29:26;14.50;;;13.30;;
19235;SDS011;9752;54.270;12.470;2022-08-21T14:34:29;13.77;;;12.63;;
19235;SDS011;9752;54.270;12.470;2022-08-21T14:39:32;14.10;;;13.00;;
19235;SDS011;9752;54.270;12.470;2022-08-21T14:44:34;14.47;;;13.53;;
19235;SDS011;9752;54.270;12.470;2022-08-21T14:49:36;15.47;;;14.53;;
19235;SDS011;9752;54.270;12.470;2022-08-21T14:54:40;15.32;;;14.23;;
19235;SDS011;9752;54.270;12.470;2022-08-21T14:59:41;15.13;;;14.15;;
19235;SDS011;9752;54.270;12.470;2022-08-21T15:04:43;15.63;;;14.52;;
19235;SDS011;9752;54.270;12.470;2022-08-21T15:09:46;14.98;;;14.10;;
19235;SDS011;9752;54.270;12.470;2022-08-21T15:14:48;16.23;;;14.95;;
19235;SDS011;9752;54.270;12.470;2022-08-21T15:19:50;15.45;;;14.43;;
19235;SDS011;9752;54.270;12.470;2022-08-21T15:24:53;14.57;;;13.88;;
19235;SDS011;9752;54.270;12.470;2022-08-21T15:29:55;15.60;;;14.45;;
19235;SDS011;9752;54.270;12.470;2022-08-21T15:34:56;14.20;;;13.38;;
19235;SDS011;9752;54.270;12.470;2022-08-21T15:40:00;15.77;;;14.57;;
19235;SDS011;9752;54.270;12.470;2022-08-21T15:45:02;14.90;;;14.00;;
19235;SDS011;9752;54.270;12.470;2022-08-21T15:50:06;14.50;;;13.70;;
19235;SDS011;9752;54.270;12.470;2022-08-21T15:55:11;16.02;;;14.50;;
19235;SDS011;9752;54.270;12.470;2022-08-21T16:00:14;14.77;;;13.90;;
19235;SDS011;9752;54.270;12.470;2022-08-21T16:05:19;14.45;;;13.55;;
19235;SDS011;9752;54.270;12.470;2022-08-21T16:10:22;14.93;;;14.13;;
19235;SDS011;9752;54.270;12.470;2022-08-21T16:15:25;14.65;;;13.85;;
19235;SDS011;9752;54.270;12.470;2022-08-21T16:20:28;14.93;;;13.93;;
19235;SDS011;9752;54.270;12.470;2022-08-21T16:25:31;15.10;;;14.27;;
19235;SDS011;9752;54.270;12.470;2022-08-21T16:30:36;14.50;;;13.65;;
19235;SDS011;9752;54.270;12.470;2022-08-21T16:35:37;14.55;;;13.52;;
19235;SDS011;9752;54.270;12.470;2022-08-21T16:40:41;14.30;;;13.38;;
19235;SDS011;9752;54.270;12.470;2022-08-21T16:45:43;14.68;;;13.57;;
19235;SDS011;9752;54.270;12.470;2022-08-21T16:50:45;14.18;;;13.48;;
19235;SDS011;9752;54.270;12.470;2022-08-21T16:55:48;14.10;;;13.27;;
19235;SDS011;9752;54.270;12.470;2022-08-21T17:00:51;15.40;;;14.40;;
19235;SDS011;9752;54.270;12.470;2022-08-21T17:05:53;15.23;;;14.13;;
19235;SDS011;9752;54.270;12.470;2022-08-21T17:10:56;15.18;;;14.38;;
19235;SDS011;9752;54.270;12.470;2022-08-21T17:15:59;15.85;;;14.40;;
19235;SDS011;9752;54.270;12.470;2022-08-21T17:21:01;14.00;;;13.07;;
19235;SDS011;9752;54.270;12.470;2022-08-21T17:26:04;15.07;;;14.13;;
19235;SDS011;9752;54.270;12.470;2022-08-21T17:31:07;15.45;;;14.27;;
19235;SDS011;9752;54.270;12.470;2022-08-21T17:36:10;15.20;;;14.30;;
19235;SDS011;9752;54.270;12.470;2022-08-21T17:41:13;14.75;;;13.73;;
19235;SDS011;9752;54.270;12.470;2022-08-21T17:46:17;14.32;;;13.50;;
19235;SDS011;9752;54.270;12.470;2022-08-21T17:51:21;13.83;;;12.83;;
19235;SDS011;9752;54.270;12.470;2022-08-21T17:56:25;13.73;;;12.83;;
19235;SDS011;9752;54.270;12.470;2022-08-21T18:01:31;13.83;;;12.93;;
19235;SDS011;9752;54.270;12.470;2022-08-21T18:06:35;13.50;;;12.60;;
19235;SDS011;9752;54.270;12.470;2022-08-21T18:11:39;11.63;;;10.90;;
19235;SDS011;9752;54.270;12.470;2022-08-21T18:16:42;10.20;;;9.70;;
19235;SDS011;9752;54.270;12.470;2022-08-21T18:21:44;11.03;;;10.43;;
19235;SDS011;9752;54.270;12.470;2022-08-21T18:26:48;11.50;;;10.37;;
19235;SDS011;9752;54.270;12.470;2022-08-21T18:31:51;11.97;;;8.77;;
19235;SDS011;9752;54.270;12.470;2022-08-21T18:36:53;9.73;;;8.73;;
19235;SDS011;9752;54.270;12.470;2022-08-21T18:41:56;11.47;;;8.30;;
19235;SDS011;9752;54.270;12.470;2022-08-21T18:47:00;7.87;;;7.17;;
19235;SDS011;9752;54.270;12.470;2022-08-21T18:52:04;7.57;;;6.37;;
19235;SDS011;9752;54.270;12.470;2022-08-21T18:57:08;9.57;;;6.77;;
19235;SDS011;9752;54.270;12.470;2022-08-21T19:02:10;7.00;;;5.70;;
19235;SDS011;9752;54.270;12.470;2022-08-21T19:07:12;9.97;;;5.57;;
19235;SDS011;9752;54.270;12.470;2022-08-21T19:12:17;13.40;;;5.40;;
19235;SDS011;9752;54.270;12.470;2022-08-21T19:17:23;7.07;;;5.03;;
19235;SDS011;9752;54.270;12.470;2022-08-21T19:22:25;9.60;;;5.00;;
19235;SDS011;9752;54.270;12.470;2022-08-21T19:27:29;8.37;;;5.30;;
19235;SDS011;9752;54.270;12.470;2022-08-21T19:32:30;8.40;;;4.50;;
19235;SDS011;9752;54.270;12.470;2022-08-21T19:37:32;10.33;;;4.63;;
19235;SDS011;9752;54.270;12.470;2022-08-21T19:42:35;5.30;;;4.60;;
19235;SDS011;9752;54.270;12.470;2022-08-21T19:47:39;10.13;;;5.13;;
19235;SDS011;9752;54.270;12.470;2022-08-21T19:52:46;8.63;;;4.97;;
19235;SDS011;9752;54.270;12.470;2022-08-21T19:57:49;10.47;;;5.60;;
19235;SDS011;9752;54.270;12.470;2022-08-21T20:02:51;10.40;;;5.70;;
19235;SDS011;9752;54.270;12.470;2022-08-21T20:07:52;7.40;;;5.70;;
19235;SDS011;9752;54.270;12.470;2022-08-21T20:12:56;9.93;;;5.63;;
19235;SDS011;9752;54.270;12.470;2022-08-21T20:17:57;7.27;;;5.10;;
19235;SDS011;9752;54.270;12.470;2022-08-21T20:22:59;7.47;;;5.70;;
19235;SDS011;9752;54.270;12.470;2022-08-21T20:28:02;10.13;;;6.20;;
19235;SDS011;9752;54.270;12.470;2022-08-21T20:33:04;6.43;;;5.10;;
19235;SDS011;9752;54.270;12.470;2022-08-21T20:38:06;11.80;;;6.07;;
19235;SDS011;9752;54.270;12.470;2022-08-21T20:43:09;13.83;;;7.77;;
19235;SDS011;9752;54.270;12.470;2022-08-21T20:48:13;10.67;;;6.70;;
19235;SDS011;9752;54.270;12.470;2022-08-21T20:53:18;9.80;;;6.70;;
19235;SDS011;9752;54.270;12.470;2022-08-21T20:58:27;16.07;;;7.93;;
19235;SDS011;9752;54.270;12.470;2022-08-21T21:03:33;10.77;;;6.50;;
19235;SDS011;9752;54.270;12.470;2022-08-21T21:08:44;11.23;;;6.53;;
19235;SDS011;9752;54.270;12.470;2022-08-21T21:13:52;7.93;;;7.03;;
19235;SDS011;9752;54.270;12.470;2022-08-21T21:18:57;13.93;;;7.17;;
19235;SDS011;9752;54.270;12.470;2022-08-21T21:24:03;12.07;;;6.57;;
19235;SDS011;9752;54.270;12.470;2022-08-21T21:29:10;8.83;;;6.67;;
19235;SDS011;9752;54.270;12.470;2022-08-21T21:34:18;13.43;;;8.13;;
19235;SDS011;9752;54.270;12.470;2022-08-21T21:39:22;10.07;;;7.30;;
19235;SDS011;9752;54.270;12.470;2022-08-21T21:44:34;11.30;;;7.90;;
19235;SDS011;9752;54.270;12.470;2022-08-21T21:49:57;12.60;;;7.57;;
19235;SDS011;9752;54.270;12.470;2022-08-21T21:55:23;13.90;;;8.37;;
19235;SDS011;9752;54.270;12.470;2022-08-21T22:00:38;10.53;;;8.03;;
19235;SDS011;9752;54.270;12.470;2022-08-21T22:05:48;11.07;;;9.43;;
19235;SDS011;9752;54.270;12.470;2022-08-21T22:10:59;11.53;;;8.30;;
19235;SDS011;9752;54.270;12.470;2022-08-21T22:16:06;15.27;;;8.37;;
19235;SDS011;9752;54.270;12.470;2022-08-21T22:21:09;12.07;;;8.23;;
19235;SDS011;9752;54.270;12.470;2022-08-21T22:26:15;15.00;;;8.33;;
19235;SDS011;9752;54.270;12.470;2022-08-21T22:31:24;11.90;;;8.47;;
19235;SDS011;9752;54.270;12.470;2022-08-21T22:36:29;14.30;;;8.23;;
19235;SDS011;9752;54.270;12.470;2022-08-21T22:41:36;9.67;;;7.77;;
19235;SDS011;9752;54.270;12.470;2022-08-21T22:46:43;10.63;;;8.90;;
19235;SDS011;9752;54.270;12.470;2022-08-21T22:51:52;14.93;;;9.40;;
19235;SDS011;9752;54.270;12.470;2022-08-21T22:56:57;11.43;;;9.10;;
19235;SDS011;9752;54.270;12.470;2022-08-21T23:02:05;13.40;;;9.03;;
19235;SDS011;9752;54.270;12.470;2022-08-21T23:07:30;10.93;;;9.57;;
19235;SDS011;9752;54.270;12.470;2022-08-21T23:12:37;13.40;;;9.70;;
19235;SDS011;9752;54.270;12.470;2022-08-21T23:17:43;13.33;;;9.57;;
19235;SDS011;9752;54.270;12.470;2022-08-21T23:22:54;11.97;;;9.07;;
19235;SDS011;9752;54.270;12.470;2022-08-21T23:28:04;13.40;;;9.43;;
19235;SDS011;9752;54.270;12.470;2022-08-21T23:33:34;12.90;;;10.53;;
19235;SDS011;9752;54.270;12.470;2022-08-21T23:38:52;14.27;;;10.90;;
19235;SDS011;9752;54.270;12.470;2022-08-21T23:44:12;13.60;;;10.27;;
19235;SDS011;9752;54.270;12.470;2022-08-21T23:49:26;12.50;;;10.07;;
19235;SDS011;9752;54.270;12.470;2022-08-21T23:54:40;15.17;;;9.93;;
19235;SDS011;9752;54.270;12.470;2022-08-21T23:59:54;11.03;;;9.63;;
